METAR Data
IDs: Format: Raw Decoded Include TAF

Data at: 2326 UTC 26 Feb 2020

KMIW 262253Z AUTO 34013KT 10SM CLR M01/M09 A3023 RMK AO2 SLP249 T10111094 $
KMIW 262153Z AUTO 33013KT 10SM CLR M01/M10 A3023 RMK AO2 SLP251 T10061100 $
KMIW 262053Z AUTO 33016KT 10SM CLR 00/M09 A3023 RMK AO2 PK WND 32026/2040 SLP249 T00001094 56013 $
KMIW 261953Z AUTO 33016G23KT 10SM BKN030 BKN037 00/M07 A3023 RMK AO2 SLP248 T00001067 $
KMIW 261946Z AUTO 34015G24KT 10SM BKN030 BKN036 01/M06 A3023 RMK AO2 T00061061 $
KMIW 261929Z AUTO 33014G21KT 10SM BKN028 BKN036 00/M06 A3023 RMK AO2 T00001061 $
KMIW 261903Z AUTO 34013KT 10SM SCT023 BKN032 M01/M06 A3024 RMK AO2 T10111056 $
KMIW 261853Z AUTO 34013KT 10SM BKN025 BKN032 M01/M06 A3024 RMK AO2 SLP252 T10061056 $
KMIW 261816Z AUTO 35014KT 10SM BKN021 M02/M06 A3026 RMK AO2 T10171056 $
KMIW 261804Z AUTO 35014G21KT 10SM SCT021 BKN031 M01/M06 A3026 RMK AO2 T10111056 $
KMIW 261753Z AUTO 33013KT 10SM BKN021 M02/M06 A3027 RMK AO2 SLP261 T10171061 11011 21050 58002 $
KMIW 261653Z AUTO 34015G21KT 10SM OVC050 M03/M06 A3028 RMK AO2 SLP267 T10281061
KMIW 261553Z AUTO 34018KT 10SM FEW045 M03/M07 A3028 RMK AO2 SLP267 T10331067
KMIW 261453Z AUTO 34014KT 10SM FEW012 M04/M07 A3027 RMK AO2 SLP264 T10441067 51011
KMIW 261353Z AUTO 33015KT 10SM BKN060 BKN120 M05/M07 A3027 RMK AO2 SLP263 T10501067
KMIW 261253Z AUTO 33011KT 10SM OVC060 M04/M06 A3025 RMK AO2 SLP255 T10441061 $
KMIW 261153Z AUTO 34011KT 10SM OVC060 M04/M05 A3024 RMK AO2 SLP253 T10391050 11011 21039 52005 $
KMIW 261053Z AUTO 33011KT 10SM CLR M04/M05 A3024 RMK AO2 SLP252 T10391050 $
KMIW 260953Z AUTO 34012KT 10SM CLR M04/M05 A3023 RMK AO2 SLP247 T10391050 $
KMIW 260853Z AUTO 34011KT 10SM CLR M03/M06 A3022 RMK AO2 SLP246 T10331061 58001 $
KMIW 260753Z AUTO 35013KT 10SM CLR M03/M06 A3024 RMK AO2 SLP249 T10281061 $
KMIW 260653Z AUTO 36014KT 10SM CLR M02/M06 A3023 RMK AO2 SLP248 T10171056 $
KMIW 260553Z AUTO 36013G23KT 10SM FEW120 M01/M06 A3023 RMK AO2 SLP246 T10111056 11006 21017 400281017 58000 $
KMIW 260453Z AUTO 36016KT 10SM FEW120 M01/M05 A3023 RMK AO2 SLP248 T10111050 $
KMIW 260353Z AUTO 35011KT 10SM CLR M01/M05 A3023 RMK AO2 SLP247 T10111050 $
KMIW 260253Z AUTO 36012KT 10SM CLR M01/M05 A3023 RMK AO2 SLP248 T10111050 51017 $
KMIW 260153Z AUTO 36014KT 10SM FEW041 M01/M04 A3022 RMK AO2 SLP245 T10061044 $
KMIW 260053Z AUTO 01015G24KT 10SM BKN039 OVC120 M01/M04 A3021 RMK AO2 PK WND 36027/0013 SLP241 T10061044 $
KMIW 252353Z AUTO 01016KT 10SM FEW036 OVC110 M01/M04 A3018 RMK AO2 SLP230 T10061039 10028 21006 53018
KMIW 252253Z AUTO 36016G25KT 10SM FEW027 BKN032 00/M04 A3016 RMK AO2 SLP223 T00001039
KMIW 252220Z AUTO 01017G24KT 10SM BKN030 01/M04 A3015 RMK AO2 T00061039
KMIW 252212Z AUTO 36015G23KT 10SM FEW023 BKN029 01/M03 A3014 RMK AO2 T00061028
KMIW 252153Z AUTO 01015KT 10SM SCT030 01/M04 A3014 RMK AO2 SLP216 T00111039
KMIW 252053Z AUTO 03016KT 10SM FEW027 FEW120 02/M04 A3012 RMK AO2 PK WND 01026/2013 SLP210 T00171039 53005
KMIW 251953Z AUTO 02021G26KT 10SM FEW024 02/M03 A3010 RMK AO2 PK WND 03027/1900 SLP202 T00221028
KMIW 251853Z AUTO 02018G25KT 10SM CLR 02/M03 A3010 RMK AO2 PK WND 02026/1754 SLP204 T00221028
KMIW 251753Z AUTO 02020G25KT 10SM CLR 02/M02 A3011 RMK AO2 PK WND 01026/1743 SLP204 T00221022 10022 21011 51014
KMIW 251653Z AUTO 02019KT 10SM CLR 02/M03 A3009 RMK AO2 PK WND 03027/1640 SLP200 T00221033
KMIW 251553Z AUTO 04018KT 10SM CLR 01/M03 A3008 RMK AO2 PK WND 03026/1519 SLP195 T00111033
KMIW 251453Z AUTO 03016KT 10SM CLR 00/M03 A3006 RMK AO2 SLP190 T00001033 52023
KMIW 251353Z AUTO 03014KT 10SM CLR M01/M03 A3004 RMK AO2 SLP184 T10061033
KMIW 251253Z AUTO 03014KT 10SM CLR M01/M03 A3001 RMK AO2 SLP173 T10111033 $
KMIW 251153Z AUTO 03013KT 10SM CLR M01/M03 A2999 RMK AO2 SLP166 T10061033 10000 21006 53016 $